sensor_id;sensor_type;location;lat;lon;timestamp;P1;durP1;ratioP1;P2;durP2;ratioP2
84161;SDS011;74285;52.372;12.924;2024-03-22T00:01:01;19.17;;;7.10;;
84161;SDS011;74285;52.372;12.924;2024-03-22T00:03:26;19.17;;;7.73;;
84161;SDS011;74285;52.372;12.924;2024-03-22T00:05:51;15.03;;;7.47;;
84161;SDS011;74285;52.372;12.924;2024-03-22T00:08:17;17.27;;;7.57;;
84161;SDS011;74285;52.372;12.924;2024-03-22T00:10:42;17.70;;;7.87;;
84161;SDS011;74285;52.372;12.924;2024-03-22T00:13:07;16.87;;;7.20;;
84161;SDS011;74285;52.372;12.924;2024-03-22T00:15:33;15.17;;;7.70;;
84161;SDS011;74285;52.372;12.924;2024-03-22T00:17:58;18.17;;;7.07;;
84161;SDS011;74285;52.372;12.924;2024-03-22T00:20:23;19.17;;;7.80;;
84161;SDS011;74285;52.372;12.924;2024-03-22T00:22:48;16.73;;;7.70;;
84161;SDS011;74285;52.372;12.924;2024-03-22T00:25:14;16.27;;;7.63;;
84161;SDS011;74285;52.372;12.924;2024-03-22T00:27:39;17.15;;;6.97;;
84161;SDS011;74285;52.372;12.924;2024-03-22T00:32:32;15.60;;;7.10;;
84161;SDS011;74285;52.372;12.924;2024-03-22T00:34:57;16.90;;;6.80;;
84161;SDS011;74285;52.372;12.924;2024-03-22T00:37:23;17.80;;;6.90;;
84161;SDS011;74285;52.372;12.924;2024-03-22T00:39:48;13.93;;;6.97;;
84161;SDS011;74285;52.372;12.924;2024-03-22T00:42:13;17.73;;;7.13;;
84161;SDS011;74285;52.372;12.924;2024-03-22T00:44:38;17.73;;;6.47;;
84161;SDS011;74285;52.372;12.924;2024-03-22T00:47:04;15.63;;;7.73;;
84161;SDS011;74285;52.372;12.924;2024-03-22T00:49:30;16.38;;;6.80;;
84161;SDS011;74285;52.372;12.924;2024-03-22T00:51:55;15.20;;;7.00;;
84161;SDS011;74285;52.372;12.924;2024-03-22T00:54:21;18.13;;;6.78;;
84161;SDS011;74285;52.372;12.924;2024-03-22T00:56:47;15.82;;;7.35;;
84161;SDS011;74285;52.372;12.924;2024-03-22T00:59:12;17.07;;;6.93;;
84161;SDS011;74285;52.372;12.924;2024-03-22T01:01:37;15.02;;;6.78;;
84161;SDS011;74285;52.372;12.924;2024-03-22T01:04:03;17.35;;;6.70;;
84161;SDS011;74285;52.372;12.924;2024-03-22T01:06:28;18.60;;;6.35;;
84161;SDS011;74285;52.372;12.924;2024-03-22T01:08:53;15.50;;;6.67;;
84161;SDS011;74285;52.372;12.924;2024-03-22T01:11:19;15.40;;;6.57;;
84161;SDS011;74285;52.372;12.924;2024-03-22T01:13:44;16.83;;;7.00;;
84161;SDS011;74285;52.372;12.924;2024-03-22T01:16:09;18.50;;;7.27;;
84161;SDS011;74285;52.372;12.924;2024-03-22T01:18:35;13.50;;;6.73;;
84161;SDS011;74285;52.372;12.924;2024-03-22T01:21:01;17.58;;;6.82;;
84161;SDS011;74285;52.372;12.924;2024-03-22T01:23:26;17.33;;;7.65;;
84161;SDS011;74285;52.372;12.924;2024-03-22T01:25:52;14.70;;;6.30;;
84161;SDS011;74285;52.372;12.924;2024-03-22T01:28:17;19.43;;;8.03;;
84161;SDS011;74285;52.372;12.924;2024-03-22T01:30:42;15.17;;;6.60;;
84161;SDS011;74285;52.372;12.924;2024-03-22T01:33:08;15.57;;;6.65;;
84161;SDS011;74285;52.372;12.924;2024-03-22T01:35:33;18.07;;;6.47;;
84161;SDS011;74285;52.372;12.924;2024-03-22T01:37:58;16.17;;;7.03;;
84161;SDS011;74285;52.372;12.924;2024-03-22T01:40:24;14.97;;;6.57;;
84161;SDS011;74285;52.372;12.924;2024-03-22T01:42:52;16.53;;;6.80;;
84161;SDS011;74285;52.372;12.924;2024-03-22T01:45:18;16.83;;;6.40;;
84161;SDS011;74285;52.372;12.924;2024-03-22T01:47:45;15.23;;;6.18;;
84161;SDS011;74285;52.372;12.924;2024-03-22T01:50:10;18.47;;;7.00;;
84161;SDS011;74285;52.372;12.924;2024-03-22T01:52:36;18.88;;;8.02;;
84161;SDS011;74285;52.372;12.924;2024-03-22T01:55:02;17.15;;;7.53;;
84161;SDS011;74285;52.372;12.924;2024-03-22T01:57:29;16.67;;;7.30;;
84161;SDS011;74285;52.372;12.924;2024-03-22T01:59:55;17.43;;;7.17;;
84161;SDS011;74285;52.372;12.924;2024-03-22T02:02:20;15.20;;;6.03;;
84161;SDS011;74285;52.372;12.924;2024-03-22T02:04:46;15.97;;;6.23;;
84161;SDS011;74285;52.372;12.924;2024-03-22T02:07:11;17.27;;;6.70;;
84161;SDS011;74285;52.372;12.924;2024-03-22T02:09:36;17.63;;;7.07;;
84161;SDS011;74285;52.372;12.924;2024-03-22T02:12:02;16.33;;;6.45;;
84161;SDS011;74285;52.372;12.924;2024-03-22T02:14:27;16.95;;;7.28;;
84161;SDS011;74285;52.372;12.924;2024-03-22T02:16:53;18.43;;;6.70;;
84161;SDS011;74285;52.372;12.924;2024-03-22T02:19:18;14.93;;;6.13;;
84161;SDS011;74285;52.372;12.924;2024-03-22T02:21:43;15.10;;;6.77;;
84161;SDS011;74285;52.372;12.924;2024-03-22T02:24:08;16.30;;;7.13;;
84161;SDS011;74285;52.372;12.924;2024-03-22T02:26:34;19.93;;;7.40;;
84161;SDS011;74285;52.372;12.924;2024-03-22T02:28:59;17.93;;;7.13;;
84161;SDS011;74285;52.372;12.924;2024-03-22T02:31:25;15.18;;;6.22;;
84161;SDS011;74285;52.372;12.924;2024-03-22T02:33:51;14.52;;;6.10;;
84161;SDS011;74285;52.372;12.924;2024-03-22T02:36:17;17.17;;;6.80;;
84161;SDS011;74285;52.372;12.924;2024-03-22T02:38:42;15.15;;;6.43;;
84161;SDS011;74285;52.372;12.924;2024-03-22T02:41:07;14.70;;;5.90;;
84161;SDS011;74285;52.372;12.924;2024-03-22T02:43:33;15.07;;;6.07;;
84161;SDS011;74285;52.372;12.924;2024-03-22T02:45:58;17.00;;;6.70;;
84161;SDS011;74285;52.372;12.924;2024-03-22T02:48:24;17.52;;;6.85;;
84161;SDS011;74285;52.372;12.924;2024-03-22T02:50:54;16.25;;;6.07;;
84161;SDS011;74285;52.372;12.924;2024-03-22T02:53:20;15.40;;;5.97;;
84161;SDS011;74285;52.372;12.924;2024-03-22T02:55:45;12.90;;;6.33;;
84161;SDS011;74285;52.372;12.924;2024-03-22T02:58:10;16.30;;;6.10;;
84161;SDS011;74285;52.372;12.924;2024-03-22T03:00:36;12.83;;;5.40;;
84161;SDS011;74285;52.372;12.924;2024-03-22T03:03:03;14.32;;;5.78;;
84161;SDS011;74285;52.372;12.924;2024-03-22T03:05:28;14.25;;;5.78;;
84161;SDS011;74285;52.372;12.924;2024-03-22T03:07:53;11.87;;;5.23;;
84161;SDS011;74285;52.372;12.924;2024-03-22T03:10:20;14.60;;;5.95;;
84161;SDS011;74285;52.372;12.924;2024-03-22T03:12:45;16.23;;;6.40;;
84161;SDS011;74285;52.372;12.924;2024-03-22T03:15:11;16.50;;;6.55;;
84161;SDS011;74285;52.372;12.924;2024-03-22T03:17:37;16.90;;;6.40;;
84161;SDS011;74285;52.372;12.924;2024-03-22T03:20:02;13.15;;;5.55;;
84161;SDS011;74285;52.372;12.924;2024-03-22T03:22:32;15.30;;;6.68;;
84161;SDS011;74285;52.372;12.924;2024-03-22T03:24:58;17.70;;;7.53;;
84161;SDS011;74285;52.372;12.924;2024-03-22T03:27:23;13.37;;;5.27;;
84161;SDS011;74285;52.372;12.924;2024-03-22T03:29:48;13.57;;;5.50;;
84161;SDS011;74285;52.372;12.924;2024-03-22T03:32:14;15.77;;;5.73;;
84161;SDS011;74285;52.372;12.924;2024-03-22T03:34:40;12.38;;;5.30;;
84161;SDS011;74285;52.372;12.924;2024-03-22T03:37:05;14.45;;;5.53;;
84161;SDS011;74285;52.372;12.924;2024-03-22T03:39:31;13.57;;;6.33;;
84161;SDS011;74285;52.372;12.924;2024-03-22T03:41:56;15.98;;;6.65;;
84161;SDS011;74285;52.372;12.924;2024-03-22T03:44:21;17.03;;;5.10;;
84161;SDS011;74285;52.372;12.924;2024-03-22T03:46:47;15.88;;;5.95;;
84161;SDS011;74285;52.372;12.924;2024-03-22T03:49:12;13.03;;;5.93;;
84161;SDS011;74285;52.372;12.924;2024-03-22T03:51:37;11.43;;;6.07;;
84161;SDS011;74285;52.372;12.924;2024-03-22T03:54:03;14.60;;;6.13;;
84161;SDS011;74285;52.372;12.924;2024-03-22T03:56:29;13.32;;;5.60;;
84161;SDS011;74285;52.372;12.924;2024-03-22T03:58:54;12.13;;;5.33;;
84161;SDS011;74285;52.372;12.924;2024-03-22T04:01:19;13.13;;;5.43;;
84161;SDS011;74285;52.372;12.924;2024-03-22T04:03:44;16.17;;;6.07;;
84161;SDS011;74285;52.372;12.924;2024-03-22T04:06:10;16.47;;;5.93;;
84161;SDS011;74285;52.372;12.924;2024-03-22T04:08:35;11.50;;;5.07;;
84161;SDS011;74285;52.372;12.924;2024-03-22T04:11:00;15.83;;;6.07;;
84161;SDS011;74285;52.372;12.924;2024-03-22T04:13:26;11.82;;;5.00;;
84161;SDS011;74285;52.372;12.924;2024-03-22T04:15:52;13.07;;;5.72;;
84161;SDS011;74285;52.372;12.924;2024-03-22T04:18:18;13.10;;;5.57;;
84161;SDS011;74285;52.372;12.924;2024-03-22T04:20:52;12.33;;;5.57;;
84161;SDS011;74285;52.372;12.924;2024-03-22T04:23:20;12.60;;;5.40;;
84161;SDS011;74285;52.372;12.924;2024-03-22T04:25:55;11.38;;;5.35;;
84161;SDS011;74285;52.372;12.924;2024-03-22T04:28:24;11.82;;;6.38;;
84161;SDS011;74285;52.372;12.924;2024-03-22T04:30:59;12.65;;;5.45;;
84161;SDS011;74285;52.372;12.924;2024-03-22T04:33:26;11.07;;;6.10;;
84161;SDS011;74285;52.372;12.924;2024-03-22T04:35:56;13.50;;;5.53;;
84161;SDS011;74285;52.372;12.924;2024-03-22T04:38:22;13.32;;;6.30;;
84161;SDS011;74285;52.372;12.924;2024-03-22T04:40:48;14.73;;;5.45;;
84161;SDS011;74285;52.372;12.924;2024-03-22T04:43:14;10.93;;;5.30;;
84161;SDS011;74285;52.372;12.924;2024-03-22T04:45:45;13.07;;;5.32;;
84161;SDS011;74285;52.372;12.924;2024-03-22T04:48:12;13.18;;;5.57;;
84161;SDS011;74285;52.372;12.924;2024-03-22T04:50:38;11.93;;;6.30;;
84161;SDS011;74285;52.372;12.924;2024-03-22T04:53:03;13.90;;;5.40;;
84161;SDS011;74285;52.372;12.924;2024-03-22T04:55:30;11.93;;;5.50;;
84161;SDS011;74285;52.372;12.924;2024-03-22T04:57:55;13.30;;;6.20;;
84161;SDS011;74285;52.372;12.924;2024-03-22T05:00:22;13.55;;;5.30;;
84161;SDS011;74285;52.372;12.924;2024-03-22T05:02:47;10.57;;;5.70;;
84161;SDS011;74285;52.372;12.924;2024-03-22T05:05:12;11.13;;;5.77;;
84161;SDS011;74285;52.372;12.924;2024-03-22T05:07:38;10.80;;;4.63;;
84161;SDS011;74285;52.372;12.924;2024-03-22T05:10:03;11.37;;;5.50;;
84161;SDS011;74285;52.372;12.924;2024-03-22T05:12:28;12.32;;;4.93;;
84161;SDS011;74285;52.372;12.924;2024-03-22T05:14:54;11.70;;;5.22;;
84161;SDS011;74285;52.372;12.924;2024-03-22T05:17:19;11.35;;;5.03;;
84161;SDS011;74285;52.372;12.924;2024-03-22T05:19:45;14.27;;;5.97;;
84161;SDS011;74285;52.372;12.924;2024-03-22T05:22:10;19.60;;;8.47;;
84161;SDS011;74285;52.372;12.924;2024-03-22T05:24:35;16.93;;;8.20;;
84161;SDS011;74285;52.372;12.924;2024-03-22T05:27:01;16.57;;;5.90;;
84161;SDS011;74285;52.372;12.924;2024-03-22T05:29:26;10.37;;;5.50;;
84161;SDS011;74285;52.372;12.924;2024-03-22T05:31:51;10.57;;;4.87;;
84161;SDS011;74285;52.372;12.924;2024-03-22T05:34:17;12.20;;;6.10;;
84161;SDS011;74285;52.372;12.924;2024-03-22T05:36:42;10.07;;;5.60;;
84161;SDS011;74285;52.372;12.924;2024-03-22T05:39:08;12.67;;;5.67;;
84161;SDS011;74285;52.372;12.924;2024-03-22T05:41:33;13.97;;;5.30;;
84161;SDS011;74285;52.372;12.924;2024-03-22T05:43:58;14.83;;;5.80;;
84161;SDS011;74285;52.372;12.924;2024-03-22T05:46:23;15.67;;;6.57;;
84161;SDS011;74285;52.372;12.924;2024-03-22T05:48:49;13.75;;;6.28;;
84161;SDS011;74285;52.372;12.924;2024-03-22T05:51:15;15.48;;;6.53;;
84161;SDS011;74285;52.372;12.924;2024-03-22T05:53:41;17.33;;;5.97;;
84161;SDS011;74285;52.372;12.924;2024-03-22T05:56:07;19.65;;;7.30;;
84161;SDS011;74285;52.372;12.924;2024-03-22T05:58:32;16.00;;;6.53;;
84161;SDS011;74285;52.372;12.924;2024-03-22T06:00:57;11.57;;;6.07;;
84161;SDS011;74285;52.372;12.924;2024-03-22T06:03:23;14.23;;;6.80;;
84161;SDS011;74285;52.372;12.924;2024-03-22T06:05:48;14.80;;;7.20;;
84161;SDS011;74285;52.372;12.924;2024-03-22T06:08:14;15.80;;;6.68;;
84161;SDS011;74285;52.372;12.924;2024-03-22T06:10:43;16.88;;;6.75;;
84161;SDS011;74285;52.372;12.924;2024-03-22T06:13:09;15.55;;;6.72;;
84161;SDS011;74285;52.372;12.924;2024-03-22T06:15:34;18.67;;;7.30;;
84161;SDS011;74285;52.372;12.924;2024-03-22T06:18:00;15.17;;;7.73;;
84161;SDS011;74285;52.372;12.924;2024-03-22T06:20:25;17.10;;;8.57;;
84161;SDS011;74285;52.372;12.924;2024-03-22T06:22:50;18.60;;;7.20;;
84161;SDS011;74285;52.372;12.924;2024-03-22T06:25:15;15.50;;;7.07;;
84161;SDS011;74285;52.372;12.924;2024-03-22T06:27:41;18.10;;;8.13;;
84161;SDS011;74285;52.372;12.924;2024-03-22T06:30:06;15.13;;;6.73;;
84161;SDS011;74285;52.372;12.924;2024-03-22T06:32:32;16.38;;;7.88;;
84161;SDS011;74285;52.372;12.924;2024-03-22T06:34:57;17.20;;;7.93;;
84161;SDS011;74285;52.372;12.924;2024-03-22T06:37:22;19.67;;;8.60;;
84161;SDS011;74285;52.372;12.924;2024-03-22T06:39:47;14.50;;;6.60;;
84161;SDS011;74285;52.372;12.924;2024-03-22T06:42:13;18.67;;;7.77;;
84161;SDS011;74285;52.372;12.924;2024-03-22T06:44:38;16.40;;;7.37;;
84161;SDS011;74285;52.372;12.924;2024-03-22T06:47:03;17.25;;;7.15;;
84161;SDS011;74285;52.372;12.924;2024-03-22T06:49:29;16.55;;;7.22;;
84161;SDS011;74285;52.372;12.924;2024-03-22T06:51:54;18.80;;;7.80;;
84161;SDS011;74285;52.372;12.924;2024-03-22T06:54:20;18.80;;;9.32;;
84161;SDS011;74285;52.372;12.924;2024-03-22T06:56:46;19.92;;;7.93;;
84161;SDS011;74285;52.372;12.924;2024-03-22T06:59:12;18.97;;;8.20;;
84161;SDS011;74285;52.372;12.924;2024-03-22T07:01:37;18.87;;;8.43;;
84161;SDS011;74285;52.372;12.924;2024-03-22T07:04:02;20.07;;;8.40;;
84161;SDS011;74285;52.372;12.924;2024-03-22T07:06:29;18.87;;;8.13;;
84161;SDS011;74285;52.372;12.924;2024-03-22T07:08:55;17.58;;;8.60;;
84161;SDS011;74285;52.372;12.924;2024-03-22T07:11:20;18.48;;;8.35;;
84161;SDS011;74285;52.372;12.924;2024-03-22T07:13:46;21.63;;;9.73;;
84161;SDS011;74285;52.372;12.924;2024-03-22T07:16:11;20.80;;;8.47;;
84161;SDS011;74285;52.372;12.924;2024-03-22T07:18:36;17.87;;;8.70;;
84161;SDS011;74285;52.372;12.924;2024-03-22T07:21:03;20.92;;;8.68;;
84161;SDS011;74285;52.372;12.924;2024-03-22T07:23:28;15.55;;;8.07;;
84161;SDS011;74285;52.372;12.924;2024-03-22T07:25:54;19.57;;;8.83;;
84161;SDS011;74285;52.372;12.924;2024-03-22T07:28:19;24.07;;;10.30;;
84161;SDS011;74285;52.372;12.924;2024-03-22T07:30:44;22.17;;;9.53;;
84161;SDS011;74285;52.372;12.924;2024-03-22T07:33:10;21.87;;;9.30;;
84161;SDS011;74285;52.372;12.924;2024-03-22T07:35:38;16.75;;;9.60;;
84161;SDS011;74285;52.372;12.924;2024-03-22T07:38:03;21.77;;;9.30;;
84161;SDS011;74285;52.372;12.924;2024-03-22T07:40:29;18.67;;;8.95;;
84161;SDS011;74285;52.372;12.924;2024-03-22T07:42:54;18.60;;;8.67;;
84161;SDS011;74285;52.372;12.924;2024-03-22T07:45:19;17.67;;;8.27;;
84161;SDS011;74285;52.372;12.924;2024-03-22T07:47:45;18.47;;;8.53;;
84161;SDS011;74285;52.372;12.924;2024-03-22T07:50:10;17.15;;;7.97;;
84161;SDS011;74285;52.372;12.924;2024-03-22T07:52:35;20.87;;;9.00;;
84161;SDS011;74285;52.372;12.924;2024-03-22T07:55:01;18.43;;;9.00;;
84161;SDS011;74285;52.372;12.924;2024-03-22T07:57:29;21.20;;;9.57;;
84161;SDS011;74285;52.372;12.924;2024-03-22T07:59:56;20.30;;;9.80;;
84161;SDS011;74285;52.372;12.924;2024-03-22T08:02:22;21.25;;;8.38;;
84161;SDS011;74285;52.372;12.924;2024-03-22T08:04:47;16.47;;;8.03;;
84161;SDS011;74285;52.372;12.924;2024-03-22T08:07:12;18.73;;;9.23;;
84161;SDS011;74285;52.372;12.924;2024-03-22T08:09:38;18.90;;;9.20;;
84161;SDS011;74285;52.372;12.924;2024-03-22T08:12:04;16.00;;;8.00;;
84161;SDS011;74285;52.372;12.924;2024-03-22T08:14:30;25.15;;;9.23;;
84161;SDS011;74285;52.372;12.924;2024-03-22T08:16:55;20.70;;;8.60;;
84161;SDS011;74285;52.372;12.924;2024-03-22T08:19:20;16.53;;;7.53;;
84161;SDS011;74285;52.372;12.924;2024-03-22T08:21:45;20.73;;;10.10;;
84161;SDS011;74285;52.372;12.924;2024-03-22T08:24:11;21.13;;;10.03;;
84161;SDS011;74285;52.372;12.924;2024-03-22T08:26:36;20.60;;;9.27;;
84161;SDS011;74285;52.372;12.924;2024-03-22T08:29:01;19.80;;;8.70;;
84161;SDS011;74285;52.372;12.924;2024-03-22T08:31:26;18.03;;;7.73;;
84161;SDS011;74285;52.372;12.924;2024-03-22T08:33:53;15.07;;;8.02;;
84161;SDS011;74285;52.372;12.924;2024-03-22T08:36:20;18.58;;;7.97;;
84161;SDS011;74285;52.372;12.924;2024-03-22T08:38:46;18.57;;;7.37;;
84161;SDS011;74285;52.372;12.924;2024-03-22T08:41:11;15.50;;;7.23;;
84161;SDS011;74285;52.372;12.924;2024-03-22T08:43:36;16.67;;;7.77;;
84161;SDS011;74285;52.372;12.924;2024-03-22T08:46:01;18.63;;;7.77;;
84161;SDS011;74285;52.372;12.924;2024-03-22T08:48:28;19.17;;;8.32;;
84161;SDS011;74285;52.372;12.924;2024-03-22T08:50:53;18.27;;;9.07;;
84161;SDS011;74285;52.372;12.924;2024-03-22T08:53:19;16.30;;;7.90;;
84161;SDS011;74285;52.372;12.924;2024-03-22T08:55:47;16.80;;;7.33;;
84161;SDS011;74285;52.372;12.924;2024-03-22T08:58:16;17.08;;;7.35;;
84161;SDS011;74285;52.372;12.924;2024-03-22T09:00:42;16.05;;;7.47;;
84161;SDS011;74285;52.372;12.924;2024-03-22T09:05:33;17.27;;;7.83;;
84161;SDS011;74285;52.372;12.924;2024-03-22T09:07:59;18.13;;;7.13;;
84161;SDS011;74285;52.372;12.924;2024-03-22T09:12:51;23.38;;;7.65;;
84161;SDS011;74285;52.372;12.924;2024-03-22T09:15:16;17.50;;;8.20;;
84161;SDS011;74285;52.372;12.924;2024-03-22T09:17:42;18.67;;;9.40;;
84161;SDS011;74285;52.372;12.924;2024-03-22T09:20:07;15.98;;;7.88;;
84161;SDS011;74285;52.372;12.924;2024-03-22T09:22:33;20.10;;;8.40;;
84161;SDS011;74285;52.372;12.924;2024-03-22T09:24:59;15.63;;;7.63;;
84161;SDS011;74285;52.372;12.924;2024-03-22T09:27:24;15.30;;;7.20;;
84161;SDS011;74285;52.372;12.924;2024-03-22T09:29:49;15.67;;;7.70;;
84161;SDS011;74285;52.372;12.924;2024-03-22T09:32:15;15.85;;;7.57;;
84161;SDS011;74285;52.372;12.924;2024-03-22T09:34:40;15.47;;;6.77;;
84161;SDS011;74285;52.372;12.924;2024-03-22T09:37:05;18.23;;;8.03;;
84161;SDS011;74285;52.372;12.924;2024-03-22T09:39:31;18.17;;;7.68;;
84161;SDS011;74285;52.372;12.924;2024-03-22T09:44:22;17.70;;;7.67;;
84161;SDS011;74285;52.372;12.924;2024-03-22T09:46:48;20.55;;;9.63;;
84161;SDS011;74285;52.372;12.924;2024-03-22T09:49:15;15.75;;;8.48;;
84161;SDS011;74285;52.372;12.924;2024-03-22T09:51:42;17.45;;;7.18;;
84161;SDS011;74285;52.372;12.924;2024-03-22T09:54:08;13.57;;;6.82;;
84161;SDS011;74285;52.372;12.924;2024-03-22T09:56:34;15.93;;;8.00;;
84161;SDS011;74285;52.372;12.924;2024-03-22T09:59:00;15.43;;;7.03;;
84161;SDS011;74285;52.372;12.924;2024-03-22T10:01:25;21.80;;;8.38;;
84161;SDS011;74285;52.372;12.924;2024-03-22T10:03:51;18.23;;;8.48;;
84161;SDS011;74285;52.372;12.924;2024-03-22T10:08:42;16.30;;;7.63;;
84161;SDS011;74285;52.372;12.924;2024-03-22T10:11:07;19.80;;;7.53;;
84161;SDS011;74285;52.372;12.924;2024-03-22T10:15:58;13.13;;;7.73;;
84161;SDS011;74285;52.372;12.924;2024-03-22T10:20:58;16.40;;;7.30;;
84161;SDS011;74285;52.372;12.924;2024-03-22T10:23:25;14.15;;;7.25;;
84161;SDS011;74285;52.372;12.924;2024-03-22T10:25:51;17.52;;;8.02;;
84161;SDS011;74285;52.372;12.924;2024-03-22T10:30:41;15.80;;;7.88;;
84161;SDS011;74285;52.372;12.924;2024-03-22T10:33:08;15.60;;;8.15;;
84161;SDS011;74285;52.372;12.924;2024-03-22T10:37:59;15.40;;;7.17;;
84161;SDS011;74285;52.372;12.924;2024-03-22T10:40:25;15.57;;;7.18;;
84161;SDS011;74285;52.372;12.924;2024-03-22T10:42:52;17.73;;;8.15;;
84161;SDS011;74285;52.372;12.924;2024-03-22T10:47:47;16.83;;;7.03;;
84161;SDS011;74285;52.372;12.924;2024-03-22T10:52:58;17.75;;;6.95;;
84161;SDS011;74285;52.372;12.924;2024-03-22T10:55:32;15.13;;;7.07;;
84161;SDS011;74285;52.372;12.924;2024-03-22T10:57:59;18.27;;;8.25;;
84161;SDS011;74285;52.372;12.924;2024-03-22T11:02:53;15.95;;;6.90;;
84161;SDS011;74285;52.372;12.924;2024-03-22T11:07:44;18.97;;;6.87;;
84161;SDS011;74285;52.372;12.924;2024-03-22T11:12:37;19.23;;;7.93;;
84161;SDS011;74285;52.372;12.924;2024-03-22T11:15:02;14.82;;;6.82;;
84161;SDS011;74285;52.372;12.924;2024-03-22T11:19:54;15.98;;;6.82;;
84161;SDS011;74285;52.372;12.924;2024-03-22T11:24:45;14.48;;;6.13;;
84161;SDS011;74285;52.372;12.924;2024-03-22T11:29:36;15.50;;;7.43;;
84161;SDS011;74285;52.372;12.924;2024-03-22T11:32:04;15.10;;;7.03;;
84161;SDS011;74285;52.372;12.924;2024-03-22T11:36:54;16.37;;;7.43;;
84161;SDS011;74285;52.372;12.924;2024-03-22T11:41:45;15.33;;;6.13;;
84161;SDS011;74285;52.372;12.924;2024-03-22T11:44:13;14.93;;;6.57;;
84161;SDS011;74285;52.372;12.924;2024-03-22T11:46:40;14.38;;;6.78;;
84161;SDS011;74285;52.372;12.924;2024-03-22T11:51:31;19.00;;;7.67;;
84161;SDS011;74285;52.372;12.924;2024-03-22T11:56:22;16.30;;;6.95;;
84161;SDS011;74285;52.372;12.924;2024-03-22T11:58:48;17.65;;;7.72;;
84161;SDS011;74285;52.372;12.924;2024-03-22T12:01:16;17.88;;;7.47;;
84161;SDS011;74285;52.372;12.924;2024-03-22T12:03:46;17.45;;;7.70;;
84161;SDS011;74285;52.372;12.924;2024-03-22T12:06:12;20.67;;;7.68;;
84161;SDS011;74285;52.372;12.924;2024-03-22T12:11:05;18.95;;;7.40;;
84161;SDS011;74285;52.372;12.924;2024-03-22T12:13:32;17.77;;;7.93;;
84161;SDS011;74285;52.372;12.924;2024-03-22T12:18:22;17.50;;;7.40;;
84161;SDS011;74285;52.372;12.924;2024-03-22T12:23:13;20.30;;;7.70;;
84161;SDS011;74285;52.372;12.924;2024-03-22T12:28:03;20.20;;;7.87;;
84161;SDS011;74285;52.372;12.924;2024-03-22T12:30:28;22.58;;;8.93;;
84161;SDS011;74285;52.372;12.924;2024-03-22T12:32:54;18.75;;;7.45;;
84161;SDS011;74285;52.372;12.924;2024-03-22T12:35:20;20.60;;;8.85;;
84161;SDS011;74285;52.372;12.924;2024-03-22T12:37:46;13.43;;;4.73;;
84161;SDS011;74285;52.372;12.924;2024-03-22T12:40:11;11.97;;;4.77;;
84161;SDS011;74285;52.372;12.924;2024-03-22T12:42:39;10.07;;;4.28;;
84161;SDS011;74285;52.372;12.924;2024-03-22T12:45:06;8.37;;;3.77;;
84161;SDS011;74285;52.372;12.924;2024-03-22T12:47:32;9.32;;;3.75;;
84161;SDS011;74285;52.372;12.924;2024-03-22T12:49:57;7.97;;;3.58;;
84161;SDS011;74285;52.372;12.924;2024-03-22T12:52:23;7.53;;;3.10;;
84161;SDS011;74285;52.372;12.924;2024-03-22T12:54:48;10.80;;;4.60;;
84161;SDS011;74285;52.372;12.924;2024-03-22T12:57:13;6.28;;;2.72;;
84161;SDS011;74285;52.372;12.924;2024-03-22T12:59:39;9.17;;;3.73;;
84161;SDS011;74285;52.372;12.924;2024-03-22T13:02:04;10.07;;;3.73;;
84161;SDS011;74285;52.372;12.924;2024-03-22T13:04:29;11.10;;;4.97;;
84161;SDS011;74285;52.372;12.924;2024-03-22T13:06:55;9.70;;;4.13;;
84161;SDS011;74285;52.372;12.924;2024-03-22T13:09:20;8.55;;;4.28;;
84161;SDS011;74285;52.372;12.924;2024-03-22T13:11:46;9.68;;;3.97;;
84161;SDS011;74285;52.372;12.924;2024-03-22T13:14:12;9.90;;;4.32;;
84161;SDS011;74285;52.372;12.924;2024-03-22T13:16:37;10.37;;;4.80;;
84161;SDS011;74285;52.372;12.924;2024-03-22T13:19:02;9.33;;;4.43;;
84161;SDS011;74285;52.372;12.924;2024-03-22T13:21:29;10.18;;;5.15;;
84161;SDS011;74285;52.372;12.924;2024-03-22T13:23:56;9.38;;;4.00;;
84161;SDS011;74285;52.372;12.924;2024-03-22T13:26:21;9.53;;;4.40;;
84161;SDS011;74285;52.372;12.924;2024-03-22T13:28:46;13.13;;;5.03;;
84161;SDS011;74285;52.372;12.924;2024-03-22T13:31:11;13.47;;;6.20;;
84161;SDS011;74285;52.372;12.924;2024-03-22T13:33:37;13.43;;;5.97;;
84161;SDS011;74285;52.372;12.924;2024-03-22T13:38:29;16.95;;;6.70;;
84161;SDS011;74285;52.372;12.924;2024-03-22T13:43:21;18.10;;;8.02;;
84161;SDS011;74285;52.372;12.924;2024-03-22T13:45:48;18.13;;;7.70;;
84161;SDS011;74285;52.372;12.924;2024-03-22T13:48:18;21.73;;;7.45;;
84161;SDS011;74285;52.372;12.924;2024-03-22T13:53:09;20.47;;;8.50;;
84161;SDS011;74285;52.372;12.924;2024-03-22T13:57:59;21.80;;;9.40;;
84161;SDS011;74285;52.372;12.924;2024-03-22T14:02:51;21.20;;;8.40;;
84161;SDS011;74285;52.372;12.924;2024-03-22T14:05:21;21.27;;;9.27;;
84161;SDS011;74285;52.372;12.924;2024-03-22T14:07:46;21.03;;;9.23;;
84161;SDS011;74285;52.372;12.924;2024-03-22T14:10:12;23.15;;;9.68;;
84161;SDS011;74285;52.372;12.924;2024-03-22T14:12:40;19.08;;;8.07;;
84161;SDS011;74285;52.372;12.924;2024-03-22T14:15:06;23.30;;;8.77;;
84161;SDS011;74285;52.372;12.924;2024-03-22T14:17:31;25.40;;;10.07;;
84161;SDS011;74285;52.372;12.924;2024-03-22T14:19:57;17.30;;;7.43;;
84161;SDS011;74285;52.372;12.924;2024-03-22T14:22:23;25.57;;;10.00;;
84161;SDS011;74285;52.372;12.924;2024-03-22T14:24:48;20.77;;;8.00;;
84161;SDS011;74285;52.372;12.924;2024-03-22T14:29:39;24.57;;;8.70;;
84161;SDS011;74285;52.372;12.924;2024-03-22T14:32:04;19.73;;;8.97;;
84161;SDS011;74285;52.372;12.924;2024-03-22T14:34:32;24.45;;;10.05;;
84161;SDS011;74285;52.372;12.924;2024-03-22T14:39:22;16.80;;;8.00;;
84161;SDS011;74285;52.372;12.924;2024-03-22T14:41:47;21.20;;;9.63;;
84161;SDS011;74285;52.372;12.924;2024-03-22T14:44:13;25.27;;;9.87;;
84161;SDS011;74285;52.372;12.924;2024-03-22T14:46:38;22.50;;;10.10;;
84161;SDS011;74285;52.372;12.924;2024-03-22T14:49:04;22.57;;;8.97;;
84161;SDS011;74285;52.372;12.924;2024-03-22T14:51:29;21.60;;;8.60;;
84161;SDS011;74285;52.372;12.924;2024-03-22T14:53:55;23.70;;;9.67;;
84161;SDS011;74285;52.372;12.924;2024-03-22T14:56:20;20.30;;;8.33;;
84161;SDS011;74285;52.372;12.924;2024-03-22T14:58:45;23.25;;;9.38;;
84161;SDS011;74285;52.372;12.924;2024-03-22T15:01:11;23.38;;;9.07;;
84161;SDS011;74285;52.372;12.924;2024-03-22T15:03:36;23.38;;;9.68;;
84161;SDS011;74285;52.372;12.924;2024-03-22T15:06:02;19.80;;;8.60;;
84161;SDS011;74285;52.372;12.924;2024-03-22T15:10:53;23.52;;;8.50;;
84161;SDS011;74285;52.372;12.924;2024-03-22T15:13:18;19.00;;;9.45;;
84161;SDS011;74285;52.372;12.924;2024-03-22T15:15:53;18.60;;;8.83;;
84161;SDS011;74285;52.372;12.924;2024-03-22T15:18:19;21.15;;;8.93;;
84161;SDS011;74285;52.372;12.924;2024-03-22T15:20:45;21.05;;;8.93;;
84161;SDS011;74285;52.372;12.924;2024-03-22T15:23:10;21.17;;;8.77;;
84161;SDS011;74285;52.372;12.924;2024-03-22T15:25:36;22.17;;;9.30;;
84161;SDS011;74285;52.372;12.924;2024-03-22T15:28:01;20.97;;;8.53;;
84161;SDS011;74285;52.372;12.924;2024-03-22T15:30:26;19.83;;;8.02;;
84161;SDS011;74285;52.372;12.924;2024-03-22T15:32:52;21.55;;;8.73;;